createdAt,value
2019-04-23T00:00:19.000Z,28.2
2019-04-23T00:01:23.000Z,28.2
2019-04-23T00:45:26.000Z,27.1
2019-04-23T00:53:31.000Z,27.5
2019-04-23T00:54:41.000Z,27.6
2019-04-23T00:56:41.000Z,27.7
2019-04-23T00:58:31.000Z,27.8
2019-04-23T01:01:35.000Z,27.8
2019-04-23T01:02:36.000Z,27.8
2019-04-23T01:03:41.000Z,27.8
2019-04-23T01:05:38.000Z,27.9
2019-04-23T01:07:32.000Z,27.9
2019-04-23T01:10:25.000Z,27.9
2019-04-23T01:11:32.000Z,27.9
2019-04-23T01:12:35.000Z,27.9
2019-04-23T01:13:38.000Z,27.9
2019-04-23T01:15:40.000Z,27.8
2019-04-23T01:17:32.000Z,27.8
2019-04-23T01:18:41.000Z,27.8
2019-04-23T01:19:41.000Z,27.8
2019-04-23T01:28:11.000Z,27.6
2019-04-23T01:29:11.000Z,27.6
2019-04-23T01:30:18.000Z,27.6
2019-04-23T01:31:25.000Z,27.6
2019-04-23T01:33:25.000Z,27.7
2019-04-23T01:36:25.000Z,27.8
2019-04-23T01:39:25.000Z,27.9
2019-04-23T01:40:25.000Z,27.9
2019-04-23T01:42:25.000Z,27.9
2019-04-23T01:44:25.000Z,27.9
2019-04-23T01:45:25.000Z,28
2019-04-23T01:46:25.000Z,28
2019-04-23T01:48:10.000Z,28
2019-04-23T01:49:25.000Z,28
2019-04-23T01:50:26.000Z,28
2019-04-23T01:54:25.000Z,28
2019-04-23T01:55:25.000Z,28
2019-04-23T01:56:27.000Z,28
2019-04-23T02:08:14.000Z,27.6
2019-04-23T02:09:18.000Z,27.6
2019-04-23T02:10:26.000Z,27.5
2019-04-23T02:12:17.000Z,27.6
2019-04-23T02:13:26.000Z,27.5
2019-04-23T02:14:26.000Z,27.6
2019-04-23T02:16:21.000Z,27.6
2019-04-23T02:17:26.000Z,27.6
2019-04-23T02:19:13.000Z,27.6
2019-04-23T02:20:23.000Z,27.6
2019-04-23T02:27:04.000Z,27.6
2019-04-23T02:31:23.000Z,27.6
2019-04-23T02:33:23.000Z,27.6
2019-04-23T02:35:23.000Z,27.6
2019-04-23T02:39:21.000Z,27.8
2019-04-23T02:47:04.000Z,27.6
2019-04-23T02:48:24.000Z,27.6
2019-04-23T02:49:24.000Z,27.6
2019-04-23T02:51:24.000Z,27.7
2019-04-23T02:52:24.000Z,27.8
2019-04-23T02:55:24.000Z,27.8
2019-04-23T02:56:24.000Z,27.8
2019-04-23T02:57:24.000Z,27.9
2019-04-23T02:59:23.000Z,27.9
2019-04-23T03:07:19.000Z,27.5
2019-04-23T03:10:33.000Z,27.6
2019-04-23T03:12:34.000Z,27.6
2019-04-23T03:17:34.000Z,27.7
2019-04-23T03:19:34.000Z,27.7
2019-04-23T03:20:34.000Z,27.7
2019-04-23T03:37:09.000Z,27.3
2019-04-23T03:39:24.000Z,27.4
2019-04-23T03:40:24.000Z,27.4
2019-04-23T03:42:08.000Z,27.5
2019-04-23T03:43:24.000Z,27.5
2019-04-23T03:47:24.000Z,27.7
2019-04-23T03:49:08.000Z,27.7
2019-04-23T03:50:24.000Z,27.7
2019-04-23T03:58:27.000Z,27.4
2019-04-23T04:00:12.000Z,27.5
2019-04-23T04:01:27.000Z,27.5
2019-04-23T04:07:27.000Z,27.5
2019-04-23T04:09:12.000Z,27.5
2019-04-23T04:22:27.000Z,27.6
2019-04-23T04:24:12.000Z,27.3
2019-04-23T04:27:27.000Z,26.7
2019-04-23T04:30:27.000Z,25.9
2019-04-23T04:37:19.000Z,24.3
2019-04-23T04:39:34.000Z,24
2019-04-23T04:41:34.000Z,23.8
2019-04-23T04:44:34.000Z,23.6
2019-04-23T04:45:34.000Z,23.5
2019-04-23T04:46:34.000Z,23.5
2019-04-23T04:57:09.000Z,22.9
2019-04-23T04:58:24.000Z,22.7
2019-04-23T05:00:24.000Z,22.6
2019-04-23T05:07:24.000Z,22.5
2019-04-23T05:19:24.000Z,22.1
2019-04-23T05:24:24.000Z,22.3
2019-04-23T05:26:20.000Z,22.4
2019-04-23T05:27:24.000Z,22.4
2019-04-23T05:29:24.000Z,22.4
2019-04-23T05:30:24.000Z,22.4
2019-04-23T05:32:19.000Z,22.5
2019-04-23T05:33:23.000Z,22.5
2019-04-23T05:34:24.000Z,22.5
2019-04-23T05:35:24.000Z,22.5
2019-04-23T05:38:24.000Z,22.5
2019-04-23T05:47:09.000Z,22.1
2019-04-23T05:48:23.000Z,22.2
2019-04-23T05:49:24.000Z,22.2
2019-04-23T05:51:24.000Z,22.3
2019-04-23T05:53:21.000Z,22.3
2019-04-23T05:54:24.000Z,22.4
2019-04-23T05:57:24.000Z,22.5
2019-04-23T05:59:18.000Z,22.6
2019-04-23T06:00:24.000Z,22.6
2019-04-23T06:02:24.000Z,22.6
2019-04-23T06:04:24.000Z,22.6
2019-04-23T06:06:24.000Z,22.8
2019-04-23T06:08:12.000Z,23
2019-04-23T06:09:18.000Z,23
2019-04-23T06:17:04.000Z,23.1
2019-04-23T06:18:16.000Z,23.2
2019-04-23T06:20:24.000Z,23.3
2019-04-23T06:22:24.000Z,23.4
2019-04-23T06:24:09.000Z,23.5
2019-04-23T06:25:13.000Z,23.6
2019-04-23T06:26:23.000Z,23.6
2019-04-23T06:28:23.000Z,23.7
2019-04-23T06:29:23.000Z,23.8
2019-04-23T06:31:23.000Z,23.9
2019-04-23T06:34:10.000Z,24.1
2019-04-23T06:35:13.000Z,24.1
2019-04-23T06:36:21.000Z,24.1
2019-04-23T06:37:24.000Z,24.3
2019-04-23T06:47:09.000Z,24.3
2019-04-23T06:48:23.000Z,24.3
2019-04-23T06:50:24.000Z,24.4
2019-04-23T06:52:18.000Z,24.5
2019-04-23T07:35:02.000Z,24.3
2019-04-23T07:36:08.000Z,24.3
2019-04-23T07:38:13.000Z,24.4
2019-04-23T07:39:17.000Z,24.4
2019-04-23T07:42:17.000Z,24.6
2019-04-23T07:44:17.000Z,24.6
2019-04-23T07:47:06.000Z,24.7
2019-04-23T07:50:17.000Z,24.8
2019-04-23T07:57:09.000Z,25
2019-04-23T07:58:15.000Z,25
2019-04-23T07:59:24.000Z,25
2019-04-23T08:00:24.000Z,25
2019-04-23T08:01:24.000Z,25.1
2019-04-23T08:03:24.000Z,25.2
2019-04-23T08:04:24.000Z,25.2
2019-04-23T08:06:24.000Z,25.3
2019-04-23T08:08:18.000Z,25.3
2019-04-23T08:09:22.000Z,25.3
2019-04-23T08:17:16.000Z,25.2
2019-04-23T08:18:29.000Z,25.2
2019-04-23T08:20:23.000Z,25.2
2019-04-23T08:21:31.000Z,25.2
2019-04-23T08:23:30.000Z,25.2
2019-04-23T08:27:24.000Z,25.3
2019-04-23T08:29:31.000Z,25.3
2019-04-23T08:31:15.000Z,25.4
2019-04-23T08:32:31.000Z,25.5
2019-04-23T08:37:04.000Z,25.5
2019-04-23T08:40:24.000Z,25.6
2019-04-23T08:43:24.000Z,25.7
2019-04-23T08:45:24.000Z,25.8
2019-04-23T08:46:24.000Z,25.9
2019-04-23T08:48:24.000Z,25.9
2019-04-23T08:52:09.000Z,26
2019-04-23T08:53:17.000Z,26.1
2019-04-23T08:54:24.000Z,26.1
2019-04-23T08:55:24.000Z,26.2
2019-04-23T08:56:24.000Z,26.2
2019-04-23T09:07:09.000Z,26.1
2019-04-23T09:14:24.000Z,26.5
2019-04-23T09:16:23.000Z,26.6
2019-04-23T09:18:24.000Z,26.7
2019-04-23T09:21:24.000Z,26.7
2019-04-23T09:23:13.000Z,26.7
2019-04-23T09:24:24.000Z,26.7
2019-04-23T09:25:24.000Z,26.8
2019-04-23T09:27:17.000Z,26.8
2019-04-23T09:28:24.000Z,26.8
2019-04-23T09:30:16.000Z,26.8
2019-04-23T09:32:10.000Z,26.6
2019-04-23T09:33:24.000Z,26.5
2019-04-23T09:35:24.000Z,26.5
2019-04-23T09:36:24.000Z,26.7
2019-04-23T09:38:18.000Z,27.3
2019-04-23T09:47:19.000Z,29
2019-04-23T09:48:26.000Z,29.1
2019-04-23T09:50:22.000Z,29.2
2019-04-23T09:51:34.000Z,29.2
2019-04-23T09:53:34.000Z,29.3
2019-04-23T09:54:34.000Z,29.4
2019-04-23T09:56:34.000Z,29.3
2019-04-23T09:58:30.000Z,29.2
2019-04-23T09:59:34.000Z,29.1
2019-04-23T10:01:27.000Z,29
2019-04-23T10:03:19.000Z,28.8
2019-04-23T10:04:20.000Z,28.7
2019-04-23T10:06:18.000Z,28.4
2019-04-23T10:07:32.000Z,28.3
2019-04-23T10:09:19.000Z,28.2
2019-04-23T10:10:20.000Z,28.1
2019-04-23T10:12:19.000Z,28
2019-04-23T10:14:20.000Z,27.9
2019-04-23T10:15:26.000Z,27.9
2019-04-23T10:17:20.000Z,27.9
2019-04-23T10:19:34.000Z,27.9
2019-04-23T10:21:19.000Z,27.9
2019-04-23T10:22:19.000Z,27.9
2019-04-23T10:23:34.000Z,27.8
2019-04-23T10:25:18.000Z,27.9
2019-04-23T10:26:19.000Z,27.9
2019-04-23T10:27:34.000Z,27.8
2019-04-23T10:29:19.000Z,27.8
2019-04-23T10:30:19.000Z,27.7
2019-04-23T10:31:20.000Z,27.7
2019-04-23T10:33:19.000Z,27.7
2019-04-23T10:34:34.000Z,27.8
2019-04-23T10:36:18.000Z,27.9
2019-04-23T10:37:34.000Z,27.9
2019-04-23T10:39:19.000Z,27.9
2019-04-23T10:40:28.000Z,27.9
2019-04-23T10:42:19.000Z,27.9
2019-04-23T10:43:20.000Z,27.9
2019-04-23T10:45:19.000Z,27.9
2019-04-23T10:46:34.000Z,27.8
2019-04-23T10:49:34.000Z,27.9
2019-04-23T10:51:34.000Z,28
2019-04-23T10:53:33.000Z,28
2019-04-23T10:55:33.000Z,28
2019-04-23T11:00:33.000Z,28
2019-04-23T11:01:33.000Z,28
2019-04-23T11:07:19.000Z,28
2019-04-23T11:08:34.000Z,28
2019-04-23T11:12:18.000Z,29.7
2019-04-23T11:14:34.000Z,32.1
2019-04-23T11:16:34.000Z,33.9
2019-04-23T11:18:24.000Z,35
2019-04-23T11:21:28.000Z,36.2
2019-04-23T11:23:18.000Z,37.1
2019-04-23T11:26:31.000Z,38.5
2019-04-23T11:27:34.000Z,38.5
2019-04-23T11:37:04.000Z,38.7
2019-04-23T11:38:24.000Z,38.5
2019-04-23T11:40:11.000Z,37.7
2019-04-23T11:41:24.000Z,37
2019-04-23T11:43:24.000Z,36.9
2019-04-23T11:45:24.000Z,37
2019-04-23T11:48:10.000Z,37
2019-04-23T11:57:09.000Z,32.8
2019-04-23T11:58:20.000Z,32.4
2019-04-23T11:59:24.000Z,32
2019-04-23T12:01:24.000Z,31.5
2019-04-23T12:02:24.000Z,31.3
2019-04-23T12:05:24.000Z,30.8
2019-04-23T12:07:22.000Z,30.5
2019-04-23T12:08:24.000Z,30.4
2019-04-23T12:15:38.000Z,29.7
2019-04-23T12:17:53.000Z,29.7
2019-04-23T12:18:53.000Z,29.7
2019-04-23T12:21:53.000Z,29.7
2019-04-23T12:23:53.000Z,31
2019-04-23T12:24:53.000Z,32.1
2019-04-23T12:37:09.000Z,38.4
2019-04-23T12:38:13.000Z,38.6
2019-04-23T12:40:19.000Z,38.5
2019-04-23T12:42:24.000Z,38.3
2019-04-23T12:44:24.000Z,38.1
2019-04-23T12:46:24.000Z,38
2019-04-23T12:48:24.000Z,37.9
2019-04-23T12:49:24.000Z,37.7
2019-04-23T12:50:24.000Z,37.2
2019-04-23T12:52:08.000Z,36
2019-04-23T12:53:23.000Z,35.3
2019-04-23T12:54:24.000Z,34.8
2019-04-23T12:55:24.000Z,34.5
2019-04-23T13:07:09.000Z,31.3
2019-04-23T13:08:13.000Z,31.4
2019-04-23T13:10:24.000Z,31.8
2019-04-23T13:12:23.000Z,32.2
2019-04-23T13:13:24.000Z,32.4
2019-04-23T13:15:08.000Z,32.7
2019-04-23T13:16:12.000Z,32.9
2019-04-23T13:17:24.000Z,33
2019-04-23T13:19:24.000Z,33.1
2019-04-23T13:21:24.000Z,33.3
2019-04-23T13:27:04.000Z,32.7
2019-04-23T13:28:23.000Z,32.4
2019-04-23T13:29:24.000Z,32.2
2019-04-23T13:31:09.000Z,31.9
2019-04-23T13:34:24.000Z,31.5
2019-04-23T13:36:19.000Z,31.4
2019-04-23T13:37:24.000Z,31.2
2019-04-23T13:39:09.000Z,31.2
2019-04-23T13:40:22.000Z,31.3
2019-04-23T13:47:09.000Z,31.5
2019-04-23T13:48:20.000Z,31.5
2019-04-23T13:49:24.000Z,31.5
2019-04-23T13:50:24.000Z,31.6
2019-04-23T13:52:24.000Z,31.7
2019-04-23T13:54:24.000Z,31.7
2019-04-23T13:55:24.000Z,31.8
2019-04-23T13:57:24.000Z,31.8
2019-04-23T13:59:24.000Z,31.8
2019-04-23T14:08:26.000Z,31.2
2019-04-23T14:10:26.000Z,30.9
2019-04-23T14:12:26.000Z,30.6
2019-04-23T14:14:16.000Z,30.4
2019-04-23T14:19:26.000Z,29.9
2019-04-23T14:21:13.000Z,29.8
2019-04-23T14:22:26.000Z,29.7
2019-04-23T14:24:26.000Z,29.5
2019-04-23T14:26:26.000Z,29.4
2019-04-23T14:28:27.000Z,29.3
2019-04-23T14:30:26.000Z,29.3
2019-04-23T14:38:26.000Z,28.9
2019-04-23T14:40:26.000Z,28.9
2019-04-23T14:42:26.000Z,28.8
2019-04-23T14:44:11.000Z,28.9
2019-04-23T14:45:17.000Z,28.9
2019-04-23T14:47:26.000Z,29
2019-04-23T14:49:26.000Z,29.1
2019-04-23T14:53:26.000Z,29.3
2019-04-23T14:55:11.000Z,29.4
2019-04-23T14:56:26.000Z,29.3
2019-04-23T14:58:26.000Z,29.4
2019-04-23T15:07:04.000Z,29.3
2019-04-23T15:08:23.000Z,29.3
2019-04-23T15:09:23.000Z,29.4
2019-04-23T15:11:20.000Z,29.4
2019-04-23T15:13:23.000Z,29.5
2019-04-23T15:18:17.000Z,29.9
2019-04-23T15:19:31.000Z,30.1
2019-04-23T15:20:31.000Z,30.2
2019-04-23T15:24:27.000Z,30.1
2019-04-23T15:25:31.000Z,30.1
2019-04-23T15:26:31.000Z,30
2019-04-23T15:27:31.000Z,30
2019-04-23T15:38:11.000Z,29.3
2019-04-23T15:39:30.000Z,29.3
2019-04-23T15:41:30.000Z,29.3
2019-04-23T15:43:30.000Z,29.3
2019-04-23T15:46:30.000Z,29.3
2019-04-23T15:48:30.000Z,29.3
2019-04-23T15:51:25.000Z,29.3
2019-04-23T15:52:30.000Z,29.3
2019-04-23T15:53:30.000Z,29.4
2019-04-23T15:54:30.000Z,29.4
2019-04-23T15:56:30.000Z,29.5
2019-04-23T15:58:15.000Z,29.5
2019-04-23T15:59:28.000Z,29.5
2019-04-23T16:00:30.000Z,29.5
2019-04-23T16:01:30.000Z,29.5
2019-04-23T16:08:26.000Z,29.1
2019-04-23T16:09:41.000Z,29.2
2019-04-23T16:11:41.000Z,29.1
2019-04-23T16:13:41.000Z,29.1
2019-04-23T16:15:41.000Z,29.2
2019-04-23T16:16:41.000Z,29.2
2019-04-23T16:18:28.000Z,29.3
2019-04-23T16:20:41.000Z,29.2
2019-04-23T16:22:36.000Z,29.2
2019-04-23T16:23:41.000Z,29.2
2019-04-23T16:25:36.000Z,29.2
2019-04-23T16:26:41.000Z,29.2
2019-04-23T16:27:41.000Z,29.2
2019-04-23T16:29:26.000Z,29.3
2019-04-23T16:38:15.000Z,28.9
2019-04-23T16:39:22.000Z,28.9
2019-04-23T16:40:26.000Z,28.9
2019-04-23T16:42:26.000Z,29
2019-04-23T16:44:14.000Z,29
2019-04-23T16:45:26.000Z,28.9
2019-04-23T16:47:12.000Z,29
2019-04-23T16:48:13.000Z,29
2019-04-23T16:49:26.000Z,29
2019-04-23T16:50:26.000Z,29.1
2019-04-23T16:52:11.000Z,29.2
2019-04-23T16:59:31.000Z,29.5
2019-04-23T17:00:41.000Z,29.5
2019-04-23T17:02:41.000Z,29.5
2019-04-23T17:04:30.000Z,29.5
2019-04-23T17:05:33.000Z,29.5
2019-04-23T17:06:41.000Z,29.5
2019-04-23T17:07:41.000Z,29.5
2019-04-23T17:09:41.000Z,29.5
2019-04-23T17:10:41.000Z,29.6
2019-04-23T17:18:11.000Z,29.4
2019-04-23T17:19:29.000Z,29.4
2019-04-23T17:20:31.000Z,29.4
2019-04-23T17:22:31.000Z,29.5
2019-04-23T17:24:20.000Z,29.5
2019-04-23T17:25:31.000Z,29.5
2019-04-23T17:26:31.000Z,29.5
2019-04-23T17:29:31.000Z,29.5
2019-04-23T17:30:32.000Z,29.6
2019-04-23T17:38:16.000Z,29.3
2019-04-23T17:39:31.000Z,29.3
2019-04-23T17:41:31.000Z,29.3
2019-04-23T17:43:31.000Z,29.4
2019-04-23T17:45:24.000Z,29.4
2019-04-23T17:46:30.000Z,29.5
2019-04-23T17:47:31.000Z,29.5
2019-04-23T17:48:31.000Z,29.5
2019-04-23T17:52:31.000Z,29.6
2019-04-23T17:54:31.000Z,29.6
2019-04-23T17:57:31.000Z,29.6
2019-04-23T17:59:15.000Z,29.5
2019-04-23T18:08:16.000Z,29.1
2019-04-23T18:09:31.000Z,29.1
2019-04-23T18:11:31.000Z,29
2019-04-23T18:13:28.000Z,29
2019-04-23T18:15:17.000Z,29.1
2019-04-23T18:16:31.000Z,29
2019-04-23T18:18:31.000Z,29
2019-04-23T18:22:15.000Z,29
2019-04-23T18:24:25.000Z,29
2019-04-23T18:25:31.000Z,29
2019-04-23T18:26:31.000Z,29
2019-04-23T18:28:15.000Z,29.1
2019-04-23T18:29:31.000Z,29
2019-04-23T18:30:31.000Z,29.1
2019-04-23T18:38:11.000Z,28.7
2019-04-23T18:40:31.000Z,28.8
2019-04-23T18:43:31.000Z,28.9
2019-04-23T18:44:31.000Z,28.9
2019-04-23T18:46:31.000Z,28.9
2019-04-23T18:48:31.000Z,28.9
2019-04-23T18:50:15.000Z,28.9
2019-04-23T18:51:31.000Z,29
2019-04-23T18:53:31.000Z,29
2019-04-23T18:55:31.000Z,29
2019-04-23T18:57:31.000Z,29
2019-04-23T18:59:31.000Z,29
2019-04-23T19:08:11.000Z,28.6
2019-04-23T19:09:31.000Z,28.6
2019-04-23T19:11:31.000Z,28.6
2019-04-23T19:13:31.000Z,28.7
2019-04-23T19:15:31.000Z,28.7
2019-04-23T19:16:31.000Z,28.8
2019-04-23T19:18:18.000Z,28.8
2019-04-23T19:19:31.000Z,28.8
2019-04-23T19:21:31.000Z,28.8
2019-04-23T19:28:15.000Z,28.6
2019-04-23T19:29:30.000Z,28.6
2019-04-23T19:30:30.000Z,28.6
2019-04-23T19:32:30.000Z,28.7
2019-04-23T19:34:30.000Z,28.7
2019-04-23T19:35:30.000Z,28.7
2019-04-23T19:37:30.000Z,28.8
2019-04-23T19:40:30.000Z,28.8
2019-04-23T19:48:15.000Z,28.5
2019-04-23T19:51:11.000Z,28.6
2019-04-23T19:52:27.000Z,28.6
2019-04-23T19:56:27.000Z,28.7
2019-04-23T19:58:27.000Z,28.7
2019-04-23T20:00:11.000Z,28.7
2019-04-23T20:01:27.000Z,28.8
2019-04-23T20:03:26.000Z,28.8
2019-04-23T20:05:23.000Z,28.8
2019-04-23T20:07:27.000Z,28.7
2019-04-23T20:09:27.000Z,28.7
2019-04-23T20:10:27.000Z,28.7
2019-04-23T20:19:23.000Z,28.4
2019-04-23T20:21:21.000Z,28.4
2019-04-23T20:22:31.000Z,28.4
2019-04-23T20:24:31.000Z,28.5
2019-04-23T20:29:31.000Z,28.4
2019-04-23T20:30:32.000Z,28.4
2019-04-23T20:38:16.000Z,28.6
2019-04-23T20:39:31.000Z,28.5
2019-04-23T20:41:28.000Z,28.5
2019-04-23T20:42:28.000Z,28.5
2019-04-23T20:43:31.000Z,28.5
2019-04-23T20:45:31.000Z,28.6
2019-04-23T20:47:26.000Z,28.6
2019-04-23T20:48:31.000Z,28.6
2019-04-23T20:49:31.000Z,28.6
2019-04-23T20:58:11.000Z,28.4
2019-04-23T21:01:31.000Z,28.4
2019-04-23T21:03:16.000Z,28.5
2019-04-23T21:04:31.000Z,28.5
2019-04-23T21:05:31.000Z,28.6
2019-04-23T21:09:16.000Z,28.6
2019-04-23T21:12:18.000Z,28.5
2019-04-23T21:13:18.000Z,28.5
2019-04-23T21:15:31.000Z,28.4
2019-04-23T21:21:31.000Z,28.5
2019-04-23T21:23:31.000Z,28.5
2019-04-23T21:25:24.000Z,28.5
2019-04-23T21:28:31.000Z,28.5
2019-04-23T21:30:15.000Z,28.5
2019-04-23T21:31:31.000Z,28.5
2019-04-23T21:33:29.000Z,28.5
2019-04-23T21:34:31.000Z,28.5
2019-04-23T21:36:31.000Z,28.6
2019-04-23T21:48:16.000Z,28.2
2019-04-23T21:49:31.000Z,28.2
2019-04-23T21:51:16.000Z,28.1
2019-04-23T21:58:11.000Z,28.1
2019-04-23T21:59:27.000Z,28.1
2019-04-23T22:00:30.000Z,28.1
2019-04-23T22:02:30.000Z,28.2
2019-04-23T22:03:30.000Z,28.3
2019-04-23T22:05:24.000Z,28.3
2019-04-23T22:06:30.000Z,28.4
2019-04-23T22:07:31.000Z,28.4
2019-04-23T22:08:31.000Z,28.5
2019-04-23T22:18:16.000Z,28.1
2019-04-23T22:19:31.000Z,28.1
2019-04-23T22:20:31.000Z,28.2
2019-04-23T22:22:31.000Z,28.3
2019-04-23T22:24:31.000Z,28.4
2019-04-23T22:26:16.000Z,28.4
2019-04-23T22:27:31.000Z,28.4
2019-04-23T22:28:31.000Z,28.4
2019-04-23T22:29:31.000Z,28.4
2019-04-23T22:38:15.000Z,28.1
2019-04-23T22:39:23.000Z,28.1
2019-04-23T22:40:26.000Z,28.2
2019-04-23T22:42:26.000Z,28.2
2019-04-23T22:44:14.000Z,28.2
2019-04-23T22:45:26.000Z,28.2
2019-04-23T22:47:13.000Z,28.2
2019-04-23T22:48:26.000Z,28.1
2019-04-23T22:49:26.000Z,28.2
2019-04-23T22:51:26.000Z,28.2
2019-04-23T22:58:11.000Z,28.3
2019-04-23T22:59:31.000Z,28.2
2019-04-23T23:01:31.000Z,28.2
2019-04-23T23:03:31.000Z,28.3
2019-04-23T23:06:31.000Z,28.3
2019-04-23T23:08:31.000Z,28.3
2019-04-23T23:10:31.000Z,28.4
2019-04-23T23:12:31.000Z,28.4
2019-04-23T23:14:31.000Z,28.4
2019-04-23T23:16:29.000Z,28.4
2019-04-23T23:17:31.000Z,28.4
2019-04-23T23:28:16.000Z,28
2019-04-23T23:29:18.000Z,28.1
2019-04-23T23:32:31.000Z,28.1
2019-04-23T23:36:31.000Z,28.2
2019-04-23T23:41:31.000Z,28.3
2019-04-23T23:42:31.000Z,28.3
2019-04-23T23:44:31.000Z,28.4
2019-04-23T23:45:31.000Z,28.4
2019-04-23T23:58:11.000Z,27.9
2019-04-23T23:59:31.000Z,27.9
